Time;durP1;ratioP1;P1;durP2;ratioP2;P2;SDS_P1;SDS_P2;PMS_P1;PMS_P2;Temp;Humidity;BMP_temperature;BMP_pressure;BME280_temperature;BME280_humidity;BME280_pressure;Samples;Min_cycle;Max_cycle;Signal;HPM_P1;HPM_P2
2021/10/05 00:02:08;;;;;;;29.40;9.20;;;8.40;99.90;;;;;;5001345;28;20056;-80
2021/10/05 00:04:35;;;;;;;27.30;8.95;;;8.50;99.90;;;;;;5009035;28;20127;-80
2021/10/05 00:07:02;;;;;;;26.15;8.55;;;8.50;99.90;;;;;;5012771;28;20050;-80
2021/10/05 00:09:29;;;;;;;18.90;8.43;;;8.50;99.90;;;;;;5013022;28;20073;-80
2021/10/05 00:11:55;;;;;;;26.00;8.52;;;8.50;99.90;;;;;;5011657;28;20115;-80
2021/10/05 00:14:22;;;;;;;34.25;8.98;;;8.50;99.90;;;;;;5012316;28;20054;-80
2021/10/05 00:16:51;;;;;;;21.33;9.00;;;8.50;99.90;;;;;;5012856;28;20057;-80
2021/10/05 00:19:17;;;;;;;30.67;9.65;;;8.50;99.90;;;;;;5011938;28;20491;-80
2021/10/05 00:21:44;;;;;;;19.95;8.45;;;8.50;99.90;;;;;;5006812;28;20609;-80
2021/10/05 00:24:11;;;;;;;27.45;9.20;;;8.50;99.90;;;;;;5012730;28;20140;-80
2021/10/05 00:26:39;;;;;;;29.63;9.63;;;8.50;99.90;;;;;;5013395;28;20084;-80
2021/10/05 00:29:05;;;;;;;22.20;8.07;;;8.50;99.90;;;;;;5012467;28;20045;-80
2021/10/05 00:31:32;;;;;;;24.48;8.52;;;8.50;99.90;;;;;;5011088;28;20143;-79
2021/10/05 00:33:59;;;;;;;21.48;8.70;;;8.40;99.90;;;;;;5025934;28;20064;-80
2021/10/05 00:36:26;;;;;;;23.10;8.18;;;8.50;99.90;;;;;;5007959;28;20809;-80
2021/10/05 00:38:52;;;;;;;21.08;8.48;;;8.60;99.90;;;;;;4995264;28;20046;-80
2021/10/05 00:41:19;;;;;;;18.33;8.85;;;8.60;99.90;;;;;;5008904;28;20056;-80
2021/10/05 00:43:46;;;;;;;20.20;8.23;;;8.60;99.90;;;;;;5027488;28;20080;-80
2021/10/05 00:46:13;;;;;;;17.88;8.13;;;8.60;99.90;;;;;;5012497;28;20856;-80
2021/10/05 00:48:39;;;;;;;20.17;8.73;;;8.60;99.90;;;;;;5012440;28;20066;-80
2021/10/05 00:51:06;;;;;;;22.25;8.60;;;8.50;99.90;;;;;;5011399;28;20044;-80
2021/10/05 00:53:34;;;;;;;18.50;8.18;;;8.50;99.90;;;;;;5005168;28;20145;-80
2021/10/05 00:56:01;;;;;;;19.90;7.50;;;8.50;99.90;;;;;;5011959;28;20146;-80
2021/10/05 00:58:28;;;;;;;26.00;8.98;;;8.40;99.90;;;;;;5011469;28;20054;-80
2021/10/05 01:00:55;;;;;;;21.92;8.70;;;8.50;99.90;;;;;;5010573;28;20147;-81
2021/10/05 01:03:21;;;;;;;20.95;8.65;;;8.50;99.90;;;;;;5028299;28;20046;-80
2021/10/05 01:05:48;;;;;;;24.75;10.85;;;8.60;99.90;;;;;;5011387;28;20141;-80
2021/10/05 01:08:22;;;;;;;23.95;9.02;;;8.60;99.90;;;;;;5011060;28;20137;-80
2021/10/05 01:10:49;;;;;;;28.23;8.88;;;8.60;99.90;;;;;;5007152;28;20078;-80
2021/10/05 01:13:16;;;;;;;34.90;9.32;;;8.60;99.90;;;;;;5011503;28;20108;-80
2021/10/05 01:15:43;;;;;;;18.35;8.48;;;8.60;99.90;;;;;;5011300;28;20085;-80
2021/10/05 01:18:09;;;;;;;26.65;9.25;;;8.60;99.90;;;;;;5012407;28;20077;-80
2021/10/05 01:21:06;;;;;;;25.40;9.38;;;8.60;99.90;;;;;;5009584;28;20469;-80
2021/10/05 01:23:33;;;;;;;;;;;8.60;99.90;;;;;;5011525;28;20101;-80
2021/10/05 01:26:01;;;;;;;23.92;9.25;;;8.70;99.90;;;;;;5005605;28;19922;-80
2021/10/05 01:28:29;;;;;;;32.85;10.40;;;8.80;99.90;;;;;;5002310;28;20169;-80
2021/10/05 01:30:57;;;;;;;22.13;9.10;;;8.80;99.90;;;;;;5023120;28;20140;-80
2021/10/05 01:33:27;;;;;;;24.92;9.55;;;8.80;99.90;;;;;;5011991;28;20053;-80
2021/10/05 01:35:54;;;;;;;25.27;9.45;;;8.80;99.90;;;;;;5007267;28;20141;-80
2021/10/05 01:38:21;;;;;;;30.73;10.20;;;8.80;99.90;;;;;;5009241;28;20085;-80
2021/10/05 01:40:48;;;;;;;29.27;9.10;;;8.80;99.90;;;;;;5004473;28;20169;-80
2021/10/05 01:43:15;;;;;;;17.75;8.48;;;8.80;99.90;;;;;;5010559;28;20081;-80
2021/10/05 01:45:42;;;;;;;22.75;9.15;;;8.90;99.90;;;;;;5006812;28;20074;-80
2021/10/05 01:48:09;;;;;;;20.77;8.70;;;8.80;99.90;;;;;;5001144;28;20049;-80
2021/10/05 01:50:36;;;;;;;31.95;9.65;;;8.90;99.90;;;;;;5009389;28;20044;-80
2021/10/05 01:53:04;;;;;;;22.20;8.57;;;8.90;99.90;;;;;;5009916;28;20082;-80
2021/10/05 01:55:31;;;;;;;25.05;9.07;;;8.90;99.90;;;;;;5005977;28;20132;-80
2021/10/05 01:57:58;;;;;;;27.27;9.68;;;9.00;99.90;;;;;;5007380;28;20070;-80
2021/10/05 02:00:25;;;;;;;24.88;9.48;;;9.00;99.90;;;;;;5011546;28;20056;-80
2021/10/05 02:02:54;;;;;;;24.33;9.07;;;9.00;99.90;;;;;;4996286;28;20054;-79
2021/10/05 02:05:22;;;;;;;19.15;7.88;;;9.00;99.90;;;;;;5003334;28;20045;-80
2021/10/05 02:07:48;;;;;;;21.67;9.52;;;9.10;99.90;;;;;;5011849;28;20124;-81
2021/10/05 02:10:15;;;;;;;23.42;8.95;;;9.10;99.90;;;;;;5008841;28;20125;-80
2021/10/05 02:12:42;;;;;;;27.80;9.40;;;9.20;99.90;;;;;;5025601;28;20045;-80
2021/10/05 02:15:09;;;;;;;30.17;9.32;;;9.20;99.90;;;;;;5000632;28;20085;-80
2021/10/05 02:17:36;;;;;;;25.25;9.25;;;9.20;99.90;;;;;;5009784;28;20842;-80
2021/10/05 02:20:04;;;;;;;24.00;9.43;;;9.20;99.90;;;;;;5010160;28;20435;-80
2021/10/05 02:22:33;;;;;;;24.08;10.10;;;9.30;99.90;;;;;;5011220;28;20056;-80
2021/10/05 02:24:59;;;;;;;29.15;10.80;;;9.40;99.90;;;;;;5010135;28;20434;-80
2021/10/05 02:27:26;;;;;;;32.30;9.30;;;9.50;99.90;;;;;;5008027;28;20046;-80
2021/10/05 02:29:53;;;;;;;23.23;8.57;;;9.50;99.90;;;;;;5008463;28;20760;-80
2021/10/05 02:32:19;;;;;;;24.55;8.85;;;9.50;99.90;;;;;;5010461;28;20134;-81
2021/10/05 02:34:46;;;;;;;25.35;9.15;;;9.50;99.90;;;;;;5007813;28;20149;-80
2021/10/05 02:37:13;;;;;;;27.50;9.43;;;9.60;99.90;;;;;;5010349;28;21451;-80
2021/10/05 02:39:40;;;;;;;22.08;9.02;;;9.60;99.90;;;;;;5009155;28;20447;-80
2021/10/05 02:42:08;;;;;;;22.85;9.10;;;9.60;99.90;;;;;;5011231;28;20054;-81
2021/10/05 02:44:35;;;;;;;27.35;9.85;;;9.60;99.90;;;;;;5008297;28;20132;-80
2021/10/05 02:47:02;;;;;;;21.13;9.02;;;9.60;99.90;;;;;;5007640;28;20213;-80
2021/10/05 02:49:28;;;;;;;26.70;9.15;;;9.70;99.90;;;;;;5008480;28;20077;-80
2021/10/05 02:51:55;;;;;;;27.42;9.68;;;9.70;99.90;;;;;;5011245;28;20128;-80
2021/10/05 02:54:22;;;;;;;26.52;9.48;;;9.80;99.90;;;;;;5025584;28;20133;-80
2021/10/05 02:56:49;;;;;;;25.52;9.48;;;9.80;99.90;;;;;;5005009;28;20085;-80
2021/10/05 02:59:16;;;;;;;29.70;10.40;;;9.80;99.90;;;;;;5007693;28;20141;-81
2021/10/05 03:01:43;;;;;;;22.42;8.90;;;9.90;99.90;;;;;;5018536;28;20136;-80
2021/10/05 03:04:10;;;;;;;28.83;10.52;;;9.90;99.90;;;;;;5007917;28;20427;-80
2021/10/05 03:06:37;;;;;;;22.10;9.38;;;9.90;99.90;;;;;;5010252;28;20135;-81
2021/10/05 03:09:04;;;;;;;33.85;10.02;;;9.90;99.90;;;;;;5009356;28;20078;-80
2021/10/05 03:11:31;;;;;;;28.35;9.70;;;10.00;99.90;;;;;;5010557;28;20092;-80
2021/10/05 03:13:58;;;;;;;19.98;9.38;;;10.00;99.90;;;;;;5008812;28;20127;-80
2021/10/05 03:16:25;;;;;;;27.52;10.10;;;10.10;99.90;;;;;;5005438;28;20077;-80
2021/10/05 03:18:52;;;;;;;25.98;10.43;;;10.10;99.90;;;;;;5024323;28;20060;-80
2021/10/05 03:21:19;;;;;;;29.80;10.07;;;10.10;99.90;;;;;;5009320;28;20093;-80
2021/10/05 03:23:46;;;;;;;25.25;11.10;;;10.10;99.90;;;;;;5004980;28;20046;-80
2021/10/05 03:26:14;;;;;;;22.45;9.88;;;10.10;99.90;;;;;;5001012;28;20089;-80
2021/10/05 03:28:40;;;;;;;22.98;9.48;;;10.00;99.90;;;;;;5007802;28;20038;-80
2021/10/05 03:31:11;;;;;;;23.67;9.82;;;10.10;99.90;;;;;;5006990;28;20965;-80
2021/10/05 03:33:40;;;;;;;21.08;9.95;;;10.00;99.90;;;;;;5008734;28;20073;-80
2021/10/05 03:36:07;;;;;;;25.10;9.48;;;10.10;99.90;;;;;;5008216;28;20073;-80
2021/10/05 03:38:34;;;;;;;25.30;10.40;;;10.00;99.90;;;;;;5009122;28;20125;-80
2021/10/05 03:41:01;;;;;;;31.77;9.68;;;9.90;99.90;;;;;;5012581;28;20475;-80
2021/10/05 03:43:28;;;;;;;22.40;8.82;;;10.00;99.90;;;;;;5008464;28;20046;-80
2021/10/05 03:45:55;;;;;;;22.27;8.38;;;9.90;99.90;;;;;;5010529;28;20081;-80
2021/10/05 03:48:23;;;;;;;25.95;10.10;;;10.00;99.90;;;;;;5012855;28;20082;-80
2021/10/05 03:50:50;;;;;;;31.30;10.43;;;10.10;99.90;;;;;;5010401;28;20125;-80
2021/10/05 03:53:19;;;;;;;25.83;10.23;;;10.10;99.90;;;;;;5013606;28;20693;-80
2021/10/05 03:55:49;;;;;;;32.25;10.30;;;10.10;99.90;;;;;;5008591;28;20069;-80
2021/10/05 03:58:17;;;;;;;27.90;10.48;;;10.10;99.90;;;;;;5011127;28;20148;-80
2021/10/05 04:00:45;;;;;;;27.67;10.35;;;10.10;99.90;;;;;;5011208;28;20099;-80
2021/10/05 04:03:12;;;;;;;29.50;10.05;;;10.20;99.90;;;;;;5009694;28;20058;-80
2021/10/05 04:05:39;;;;;;;32.03;10.27;;;10.20;99.90;;;;;;5011585;28;20129;-80
2021/10/05 04:08:09;;;;;;;31.20;9.90;;;10.20;99.90;;;;;;5011914;28;20084;-80
2021/10/05 04:10:36;;;;;;;28.52;10.25;;;10.20;99.90;;;;;;5011080;28;20129;-80
2021/10/05 04:13:03;;;;;;;29.92;10.60;;;10.30;99.90;;;;;;5012152;28;20073;-80
2021/10/05 04:15:30;;;;;;;32.30;10.90;;;10.30;99.90;;;;;;5010789;28;20529;-80
2021/10/05 04:17:57;;;;;;;31.27;10.07;;;10.30;99.90;;;;;;5009459;28;20710;-79
2021/10/05 04:20:26;;;;;;;28.45;9.60;;;10.30;99.90;;;;;;5011845;28;20781;-80
2021/10/05 04:22:53;;;;;;;28.52;9.77;;;10.40;99.90;;;;;;5011828;28;20128;-79
2021/10/05 04:25:20;;;;;;;34.42;10.25;;;10.40;99.90;;;;;;5011070;28;20064;-80
2021/10/05 04:27:47;;;;;;;33.85;10.32;;;10.40;99.90;;;;;;5026346;28;20073;-79
2021/10/05 04:30:14;;;;;;;31.80;10.63;;;10.40;99.90;;;;;;5009256;28;20081;-78
2021/10/05 04:32:40;;;;;;;27.02;11.18;;;10.40;99.90;;;;;;5026888;28;20124;-80
2021/10/05 04:35:08;;;;;;;38.40;10.57;;;10.40;99.90;;;;;;5011884;28;20108;-80
2021/10/05 04:37:35;;;;;;;34.42;10.20;;;10.40;99.90;;;;;;5012850;28;20073;-80
2021/10/05 04:40:04;;;;;;;30.85;10.85;;;10.40;99.90;;;;;;5008907;28;20139;-80
2021/10/05 04:42:31;;;;;;;43.33;11.18;;;10.40;99.90;;;;;;5012247;28;21045;-80
2021/10/05 04:44:57;;;;;;;33.40;10.85;;;10.40;99.90;;;;;;5010220;28;20103;-80
2021/10/05 04:47:24;;;;;;;28.10;10.63;;;10.40;99.90;;;;;;5011170;28;20137;-80
2021/10/05 04:49:52;;;;;;;32.15;11.25;;;10.40;99.90;;;;;;5011463;28;20112;-80
2021/10/05 04:52:19;;;;;;;44.50;13.23;;;10.40;99.90;;;;;;5010938;28;20573;-80
2021/10/05 04:54:46;;;;;;;30.75;10.77;;;10.50;99.90;;;;;;5009983;28;20129;-80
2021/10/05 04:57:15;;;;;;;32.33;10.75;;;10.50;99.90;;;;;;5025045;28;20116;-80
2021/10/05 04:59:41;;;;;;;37.88;12.48;;;10.50;99.90;;;;;;5000124;28;20165;-82
2021/10/05 05:02:08;;;;;;;47.75;12.52;;;10.50;99.90;;;;;;5007744;28;20054;-81
2021/10/05 05:04:35;;;;;;;54.15;12.73;;;10.60;99.90;;;;;;5003061;28;20049;-81
2021/10/05 05:07:03;;;;;;;40.30;11.57;;;10.60;99.90;;;;;;5009690;28;20077;-82
2021/10/05 05:09:29;;;;;;;36.63;11.57;;;10.60;99.90;;;;;;5012842;28;20809;-82
2021/10/05 05:11:56;;;;;;;42.05;12.52;;;10.60;99.90;;;;;;5003091;28;20119;-81
2021/10/05 05:14:34;;;;;;;45.83;11.90;;;10.60;99.90;;;;;;5020854;28;20049;-81
2021/10/05 05:17:04;;;;;;;39.83;12.27;;;10.60;99.90;;;;;;5010201;28;20088;-81
2021/10/05 05:19:31;;;;;;;38.08;11.30;;;10.70;99.90;;;;;;5012149;28;20052;-82
2021/10/05 05:21:59;;;;;;;45.63;12.35;;;10.70;99.90;;;;;;5006384;28;20046;-82
2021/10/05 05:24:29;;;;;;;51.35;12.13;;;10.60;99.90;;;;;;5007404;28;20050;-83
2021/10/05 05:27:03;;;;;;;44.92;12.93;;;10.60;99.90;;;;;;5007733;28;20054;-85
2021/10/05 05:29:30;;;;;;;38.63;12.60;;;10.70;99.90;;;;;;5011226;28;20092;-86
2021/10/05 05:31:58;;;;;;;40.58;12.25;;;10.60;99.90;;;;;;5021933;28;20125;-87
2021/10/05 05:34:26;;;;;;;39.25;12.57;;;10.60;99.90;;;;;;5004948;28;20070;-85
2021/10/05 05:36:53;;;;;;;42.13;12.85;;;10.70;99.90;;;;;;5012405;28;20077;-83
2021/10/05 05:39:22;;;;;;;39.97;12.43;;;10.70;99.90;;;;;;5010319;28;20046;-80
2021/10/05 05:41:57;;;;;;;40.97;13.75;;;10.70;99.90;;;;;;5010252;28;20487;-84
2021/10/05 05:44:24;;;;;;;45.72;12.45;;;10.70;99.90;;;;;;5011000;28;20104;-84
2021/10/05 05:46:51;;;;;;;39.83;12.75;;;10.70;99.90;;;;;;5011124;28;20050;-85
2021/10/05 05:49:18;;;;;;;45.78;13.35;;;10.80;99.90;;;;;;5027815;28;20129;-85
2021/10/05 05:51:47;;;;;;;55.60;14.73;;;10.80;99.90;;;;;;5012836;28;20076;-83
2021/10/05 05:54:13;;;;;;;39.17;13.25;;;10.80;99.90;;;;;;5010910;28;20567;-83
2021/10/05 05:56:40;;;;;;;46.38;12.60;;;10.80;99.90;;;;;;5012683;28;20052;-84
2021/10/05 05:59:15;;;;;;;38.28;12.07;;;10.90;99.90;;;;;;5009492;28;20050;-83
2021/10/05 06:01:42;;;;;;;38.47;11.65;;;10.80;99.90;;;;;;4997280;28;20054;-83
2021/10/05 06:04:09;;;;;;;35.72;10.32;;;10.90;99.90;;;;;;5013394;28;20052;-83
2021/10/05 06:06:36;;;;;;;33.40;11.35;;;10.80;99.90;;;;;;5012190;28;20051;-83
2021/10/05 06:09:04;;;;;;;43.25;11.02;;;10.80;99.90;;;;;;5010377;28;20096;-83
2021/10/05 06:11:37;;;;;;;39.03;11.63;;;10.80;99.90;;;;;;5012068;28;20511;-84
2021/10/05 06:14:06;;;;;;;39.42;11.90;;;10.90;99.90;;;;;;5012034;28;20558;-83
2021/10/05 06:16:33;;;;;;;29.70;10.25;;;10.90;99.90;;;;;;5001319;28;20077;-84
2021/10/05 06:19:00;;;;;;;32.78;9.68;;;10.90;99.90;;;;;;5009876;28;20111;-84
2021/10/05 06:21:26;;;;;;;44.53;10.13;;;10.80;99.90;;;;;;5007879;28;20536;-84
2021/10/05 06:23:53;;;;;;;33.13;9.55;;;10.80;99.90;;;;;;4997117;28;20073;-83
2021/10/05 06:26:20;;;;;;;23.65;8.68;;;10.80;99.90;;;;;;5011774;28;20466;-84
2021/10/05 06:28:47;;;;;;;36.67;9.13;;;10.70;99.90;;;;;;5010897;28;20077;-83
2021/10/05 06:31:13;;;;;;;27.13;7.72;;;10.70;99.90;;;;;;4998726;28;20078;-84
2021/10/05 06:33:41;;;;;;;26.25;8.25;;;10.70;99.90;;;;;;4998611;28;20046;-84
2021/10/05 06:36:13;;;;;;;33.88;9.13;;;10.80;99.90;;;;;;5010889;28;20538;-84
2021/10/05 06:38:49;;;;;;;29.85;7.43;;;10.80;99.90;;;;;;5008196;28;20053;-85
2021/10/05 06:41:23;;;;;;;31.73;8.63;;;10.70;99.90;;;;;;4995027;28;20149;-84
2021/10/05 06:43:49;;;;;;;21.45;7.93;;;10.70;99.90;;;;;;5020936;28;20046;-84
2021/10/05 06:46:17;;;;;;;24.45;8.45;;;10.70;99.90;;;;;;5007712;28;20752;-84
2021/10/05 06:48:43;;;;;;;21.55;8.38;;;10.80;99.90;;;;;;5012078;28;20058;-85
2021/10/05 06:51:10;;;;;;;23.33;7.93;;;10.70;99.90;;;;;;5010891;28;20081;-85
2021/10/05 06:53:37;;;;;;;26.45;7.78;;;10.70;99.90;;;;;;5010823;28;20085;-88
2021/10/05 06:56:04;;;;;;;27.63;8.90;;;10.70;99.90;;;;;;5010886;28;20130;-84
2021/10/05 06:58:31;;;;;;;30.58;9.65;;;10.70;99.90;;;;;;5010371;28;20130;-85
2021/10/05 07:00:58;;;;;;;28.50;8.45;;;10.80;99.90;;;;;;5005550;28;20136;-85
2021/10/05 07:03:25;;;;;;;30.30;9.50;;;10.70;99.90;;;;;;5011266;28;20096;-84
2021/10/05 07:05:52;;;;;;;26.33;9.35;;;10.80;99.90;;;;;;5007693;28;20129;-85
2021/10/05 07:08:18;;;;;;;30.58;9.95;;;10.70;99.90;;;;;;5008675;28;20074;-85
2021/10/05 07:10:45;;;;;;;21.73;8.30;;;10.80;99.90;;;;;;5010352;28;20677;-85
2021/10/05 07:13:12;;;;;;;24.98;9.35;;;10.80;99.90;;;;;;5011285;28;20089;-84
2021/10/05 07:15:39;;;;;;;24.02;8.48;;;10.70;99.90;;;;;;5007542;28;20086;-85
2021/10/05 07:18:05;;;;;;;33.72;9.65;;;10.70;99.90;;;;;;5004216;28;20712;-84
2021/10/05 07:20:32;;;;;;;31.13;9.73;;;10.70;99.90;;;;;;5009755;28;20062;-85
2021/10/05 07:23:00;;;;;;;39.85;9.45;;;10.70;99.90;;;;;;5010490;28;20108;-85
2021/10/05 07:25:28;;;;;;;27.38;8.90;;;10.80;99.90;;;;;;5010910;28;20129;-85
2021/10/05 07:27:56;;;;;;;38.78;8.75;;;10.70;99.90;;;;;;5009799;28;20088;-85
2021/10/05 07:30:28;;;;;;;26.13;8.60;;;10.70;99.90;;;;;;5015468;28;20057;-85
2021/10/05 07:32:58;;;;;;;25.35;8.57;;;10.70;99.90;;;;;;5010627;28;20133;-84
2021/10/05 07:35:27;;;;;;;30.02;8.23;;;10.70;99.90;;;;;;5009598;28;20560;-83
2021/10/05 07:37:54;;;;;;;30.25;7.57;;;10.70;99.90;;;;;;5009747;28;20085;-84
2021/10/05 07:40:22;;;;;;;33.42;8.93;;;10.70;99.90;;;;;;5007697;28;20045;-84
2021/10/05 07:42:51;;;;;;;32.60;8.80;;;10.70;99.90;;;;;;5024470;28;20050;-84
2021/10/05 07:45:19;;;;;;;24.15;6.90;;;10.70;99.90;;;;;;5011077;28;20630;-86
2021/10/05 07:47:50;;;;;;;32.90;6.63;;;10.80;99.90;;;;;;5009246;28;20058;-86
2021/10/05 07:50:19;;;;;;;23.38;6.63;;;10.80;99.90;;;;;;5006198;28;20074;-86
2021/10/05 07:52:45;;;;;;;26.77;7.13;;;10.90;99.90;;;;;;5010948;28;20482;-86
2021/10/05 07:55:13;;;;;;;29.80;6.90;;;10.70;99.90;;;;;;5010291;28;20084;-86
2021/10/05 07:57:40;;;;;;;20.27;5.63;;;10.70;99.90;;;;;;5010721;28;20549;-87
2021/10/05 08:00:08;;;;;;;24.65;5.40;;;10.90;99.90;;;;;;5009379;28;20074;-86
2021/10/05 08:02:35;;;;;;;21.15;5.65;;;10.70;99.90;;;;;;5005161;28;20081;-86
2021/10/05 08:05:02;;;;;;;22.95;4.95;;;10.70;99.90;;;;;;4991644;28;20487;-85
2021/10/05 08:07:29;;;;;;;15.73;4.45;;;10.70;99.90;;;;;;5009139;28;20045;-85
2021/10/05 08:09:58;;;;;;;17.20;4.47;;;10.70;99.90;;;;;;5008358;28;20050;-85
2021/10/05 08:12:25;;;;;;;14.07;3.72;;;10.80;99.90;;;;;;5002254;28;20469;-86
2021/10/05 08:14:52;;;;;;;17.13;4.90;;;10.70;99.90;;;;;;5002726;28;20057;-85
2021/10/05 08:17:20;;;;;;;13.73;3.95;;;10.70;99.90;;;;;;5002831;28;20081;-85
2021/10/05 08:19:47;;;;;;;21.50;4.30;;;10.70;99.90;;;;;;5005321;28;20038;-84
2021/10/05 08:22:14;;;;;;;15.32;4.55;;;10.70;99.90;;;;;;5004474;28;20053;-88
2021/10/05 08:24:41;;;;;;;20.23;4.95;;;10.70;99.90;;;;;;5008706;28;20069;-84
2021/10/05 08:27:08;;;;;;;25.48;4.50;;;10.80;99.90;;;;;;5006967;28;20077;-87
2021/10/05 08:29:42;;;;;;;17.60;5.07;;;10.80;99.90;;;;;;5013496;28;20112;-87
2021/10/05 08:32:09;;;;;;;28.30;6.18;;;10.90;99.90;;;;;;4994328;28;20046;-86
2021/10/05 08:34:36;;;;;;;23.38;5.28;;;10.80;99.90;;;;;;5002542;28;20140;-86
2021/10/05 08:37:04;;;;;;;38.10;7.15;;;11.00;99.90;;;;;;5016476;28;20406;-87
2021/10/05 08:39:31;;;;;;;23.88;6.20;;;10.90;99.90;;;;;;5009537;28;20464;-87
2021/10/05 08:41:58;;;;;;;28.15;5.55;;;10.90;99.90;;;;;;4995008;28;20086;-87
2021/10/05 08:44:25;;;;;;;16.10;5.22;;;11.00;99.90;;;;;;5022740;28;20440;-86
2021/10/05 08:46:53;;;;;;;14.63;4.95;;;10.90;99.90;;;;;;5011878;28;20100;-87
2021/10/05 08:49:24;;;;;;;11.52;4.35;;;11.00;99.90;;;;;;5026131;28;20559;-86
2021/10/05 08:51:54;;;;;;;19.08;4.03;;;10.90;99.90;;;;;;5013747;28;20557;-84
2021/10/05 08:54:21;;;;;;;21.05;4.50;;;10.80;99.90;;;;;;5029078;28;20053;-84
2021/10/05 08:56:48;;;;;;;16.55;4.75;;;10.90;99.90;;;;;;5013005;28;20133;-89
2021/10/05 08:59:17;;;;;;;28.10;4.22;;;10.90;99.90;;;;;;5026407;28;20108;-85
2021/10/05 09:01:47;;;;;;;22.58;3.80;;;10.90;99.90;;;;;;5030667;28;20058;-85
2021/10/05 09:04:14;;;;;;;35.15;4.30;;;10.90;99.90;;;;;;5029012;28;20112;-83
2021/10/05 09:06:43;;;;;;;15.10;4.13;;;10.80;99.90;;;;;;5011321;28;20133;-83
2021/10/05 09:09:10;;;;;;;18.27;4.63;;;10.80;99.90;;;;;;5012034;28;20100;-83
2021/10/05 09:11:47;;;;;;;21.48;3.90;;;10.80;99.90;;;;;;5011942;28;20108;-84
2021/10/05 09:14:15;;;;;;;25.67;4.38;;;10.80;99.90;;;;;;5010698;28;20056;-84
2021/10/05 09:16:43;;;;;;;12.98;3.45;;;10.90;99.90;;;;;;5012628;28;20053;-84
2021/10/05 09:19:16;;;;;;;12.48;3.50;;;10.80;99.90;;;;;;5001082;28;20041;-84
2021/10/05 09:21:55;;;;;;;14.07;3.88;;;10.80;99.90;;;;;;5001663;28;20125;-84
2021/10/05 09:24:28;;;;;;;18.00;4.15;;;10.80;99.90;;;;;;5016383;28;20115;-85
2021/10/05 09:27:02;;;;;;;17.98;4.30;;;10.80;99.90;;;;;;5004161;28;20072;-85
2021/10/05 09:29:32;;;;;;;25.17;5.18;;;10.90;99.90;;;;;;5007934;28;20046;-86
2021/10/05 09:32:04;;;;;;;21.17;5.03;;;10.90;99.90;;;;;;5008997;28;20550;-86
2021/10/05 09:34:45;;;;;;;17.33;5.05;;;10.90;99.90;;;;;;5011050;28;20058;-86
2021/10/05 09:37:19;;;;;;;16.40;4.70;;;10.90;99.90;;;;;;5013050;28;20093;-85
2021/10/05 09:40:07;;;;;;;24.05;5.60;;;11.00;99.90;;;;;;5009131;28;20117;-86
2021/10/05 09:42:37;;;;;;;20.08;5.35;;;11.00;99.90;;;;;;5029395;28;20054;-88
2021/10/05 09:45:06;;;;;;;24.70;5.70;;;11.00;99.90;;;;;;5010845;28;20490;-88
2021/10/05 09:47:39;;;;;;;17.05;5.32;;;11.00;99.90;;;;;;5014030;28;20129;-88
2021/10/05 09:50:35;;;;;;;18.50;5.50;;;11.00;99.90;;;;;;5011114;28;20066;-88
2021/10/05 09:53:05;;;;;;;22.67;6.60;;;10.90;99.90;;;;;;5008734;28;20045;-89
2021/10/05 09:55:42;;;;;;;16.20;5.18;;;11.10;99.90;;;;;;5014437;28;20689;-89
2021/10/05 09:58:12;;;;;;;17.20;5.07;;;10.90;99.90;;;;;;5012610;28;20392;-87
2021/10/05 10:00:42;;;;;;;17.10;5.25;;;11.00;99.90;;;;;;5019495;28;20054;-86
2021/10/05 10:03:15;;;;;;;19.52;5.00;;;11.20;99.90;;;;;;5010972;28;20058;-86
2021/10/05 10:05:44;;;;;;;17.13;5.15;;;11.00;99.90;;;;;;5010836;28;20096;-88
2021/10/05 10:08:21;;;;;;;17.35;6.05;;;10.90;99.90;;;;;;5010537;28;20049;-87
2021/10/05 10:10:48;;;;;;;14.07;5.55;;;11.10;99.90;;;;;;5007160;28;20100;-87
2021/10/05 10:13:19;;;;;;;17.20;5.68;;;11.00;99.90;;;;;;5006869;28;20049;-87
2021/10/05 10:15:48;;;;;;;20.80;7.32;;;10.90;99.90;;;;;;5009599;28;20414;-85
2021/10/05 10:18:18;;;;;;;13.38;6.18;;;11.00;99.90;;;;;;5011418;28;20466;-84
2021/10/05 10:20:50;;;;;;;15.80;5.40;;;11.00;99.90;;;;;;5000063;28;20089;-84
2021/10/05 10:23:22;;;;;;;13.88;5.00;;;10.90;99.90;;;;;;5012063;28;20065;-84
2021/10/05 10:26:05;;;;;;;13.00;5.20;;;10.90;99.90;;;;;;5004632;28;20045;-85
2021/10/05 10:28:39;;;;;;;15.45;5.68;;;10.80;99.90;;;;;;5009799;28;20041;-85
2021/10/05 10:31:27;;;;;;;10.85;5.53;;;10.90;99.90;;;;;;5012237;28;20090;-84
2021/10/05 10:33:54;;;;;;;13.73;5.70;;;11.00;99.90;;;;;;5011014;28;20507;-85
2021/10/05 10:36:48;;;;;;;13.60;4.43;;;10.90;99.90;;;;;;5010701;28;20092;-85
2021/10/05 10:39:24;;;;;;;18.08;4.72;;;10.90;99.90;;;;;;5010128;28;20052;-85
2021/10/05 10:41:54;;;;;;;20.92;4.20;;;11.00;99.90;;;;;;5007388;28;20050;-85
2021/10/05 10:44:36;;;;;;;12.45;5.30;;;10.80;99.90;;;;;;4999297;28;20081;-84
2021/10/05 10:47:15;;;;;;;10.70;4.95;;;10.90;99.90;;;;;;5000770;28;20550;-85
2021/10/05 10:49:58;;;;;;;9.68;3.88;;;10.90;99.90;;;;;;5010547;28;20061;-85
2021/10/05 10:52:31;;;;;;;9.43;3.58;;;10.90;99.90;;;;;;5009851;28;20057;-84
2021/10/05 10:54:58;;;;;;;7.88;3.20;;;11.00;99.90;;;;;;5010704;28;20096;-84
2021/10/05 10:57:38;;;;;;;4.85;2.20;;;11.00;99.90;;;;;;5010157;28;20081;-85
2021/10/05 11:00:25;;;;;;;5.95;1.98;;;11.00;99.90;;;;;;5010521;28;20077;-85
2021/10/05 11:02:57;;;;;;;9.82;2.00;;;11.00;99.90;;;;;;5007460;28;20555;-85
2021/10/05 11:05:34;;;;;;;6.07;2.30;;;11.10;99.90;;;;;;5004545;28;20073;-85
2021/10/05 11:08:11;;;;;;;4.35;2.22;;;11.10;99.90;;;;;;5010093;28;20049;-85
2021/10/05 11:10:39;;;;;;;5.60;2.42;;;11.00;99.90;;;;;;5011475;28;20050;-84
2021/10/05 11:13:07;;;;;;;5.55;2.38;;;11.10;99.90;;;;;;5012213;28;20519;-85
2021/10/05 11:15:36;;;;;;;8.27;2.58;;;11.20;99.90;;;;;;5010570;28;20076;-85
2021/10/05 11:18:17;;;;;;;4.47;2.08;;;11.10;99.90;;;;;;4991350;28;20796;-84
2021/10/05 11:20:47;;;;;;;3.92;2.13;;;11.10;99.90;;;;;;4999736;28;20077;-85
2021/10/05 11:23:15;;;;;;;4.72;2.40;;;11.10;99.90;;;;;;5008186;28;20560;-82
2021/10/05 11:25:55;;;;;;;6.90;3.50;;;11.10;99.90;;;;;;5009889;28;20084;-83
2021/10/05 11:28:26;;;;;;;7.03;3.10;;;11.10;99.90;;;;;;5007982;28;20042;-83
2021/10/05 11:31:11;;;;;;;7.82;2.53;;;11.20;99.90;;;;;;5000273;28;20070;-87
2021/10/05 11:33:40;;;;;;;3.23;1.97;;;11.20;99.90;;;;;;5009628;28;20678;-90
2021/10/05 11:36:25;;;;;;;4.28;2.20;;;11.30;99.90;;;;;;5011060;28;20149;-92
2021/10/05 11:39:31;;;;;;;4.90;2.60;;;11.30;99.90;;;;;;5004558;28;20077;-88
2021/10/05 11:42:12;;;;;;;7.45;3.33;;;11.30;99.90;;;;;;5018397;28;20132;-88
2021/10/05 11:44:54;;;;;;;8.52;2.30;;;11.30;99.90;;;;;;5024979;28;20053;-91
2021/10/05 11:47:33;;;;;;;5.70;2.42;;;11.30;99.90;;;;;;5019553;28;20121;-88
2021/10/05 11:50:08;;;;;;;6.03;2.90;;;11.40;99.90;;;;;;5009379;28;20084;-89
2021/10/05 11:52:39;;;;;;;8.57;3.28;;;11.30;99.90;;;;;;5026396;28;20093;-83
2021/10/05 11:55:07;;;;;;;5.15;2.70;;;11.40;99.90;;;;;;5008849;28;20069;-85
2021/10/05 11:57:34;;;;;;;8.43;3.17;;;11.40;99.90;;;;;;5009523;28;20136;-86
2021/10/05 12:00:06;;;;;;;12.10;3.13;;;11.30;99.90;;;;;;5008058;28;20129;-84
2021/10/05 12:02:40;;;;;;;5.18;3.05;;;11.40;99.90;;;;;;5014519;28;20050;-85
2021/10/05 12:05:23;;;;;;;5.63;2.78;;;11.40;99.90;;;;;;5002200;28;20054;-85
2021/10/05 12:07:49;;;;;;;5.72;2.80;;;11.40;99.90;;;;;;5029301;28;20128;-84
2021/10/05 12:10:18;;;;;;;6.68;2.58;;;11.40;99.90;;;;;;5011369;28;20454;-85
2021/10/05 12:12:45;;;;;;;8.63;2.72;;;11.40;99.90;;;;;;5010157;28;20486;-85
2021/10/05 12:15:26;;;;;;;7.05;2.85;;;11.40;99.90;;;;;;5003579;28;20058;-85
2021/10/05 12:18:03;;;;;;;7.82;2.00;;;11.50;99.90;;;;;;5027400;28;20054;-85
2021/10/05 12:21:05;;;;;;;7.40;2.40;;;11.50;99.90;;;;;;5009497;28;20133;-84
2021/10/05 12:23:32;;;;;;;7.50;2.95;;;11.50;99.90;;;;;;5012776;28;20066;-85
2021/10/05 12:26:10;;;;;;;10.57;5.13;;;11.50;99.90;;;;;;5013766;28;20080;-84
2021/10/05 12:28:37;;;;;;;28.02;10.70;;;11.50;99.90;;;;;;5009393;28;20092;-84
2021/10/05 12:31:17;;;;;;;11.02;4.07;;;11.60;99.90;;;;;;5007976;28;20093;-86
2021/10/05 12:34:01;;;;;;;6.35;2.70;;;11.60;99.90;;;;;;5013164;28;20664;-84
2021/10/05 12:36:30;;;;;;;4.82;2.35;;;11.60;99.90;;;;;;5012987;28;20058;-86
2021/10/05 12:39:17;;;;;;;7.43;3.42;;;11.60;99.90;;;;;;5006868;28;20061;-86
2021/10/05 12:41:56;;;;;;;9.95;3.60;;;11.70;99.90;;;;;;5013102;28;20897;-85
2021/10/05 12:44:27;;;;;;;13.68;5.43;;;11.70;99.90;;;;;;5011227;28;20050;-87
2021/10/05 12:47:07;;;;;;;9.93;5.28;;;11.60;99.90;;;;;;5012658;28;20411;-86
2021/10/05 12:49:36;;;;;;;10.43;4.20;;;11.70;99.90;;;;;;5008703;28;20547;-86
2021/10/05 12:52:09;;;;;;;18.67;7.70;;;11.70;99.90;;;;;;5022390;28;20065;-85